Latest Weather Observations for Whyalla

IDS60801

Issued at 1:01 pm CST Monday 2 May 2016 (issued every 30 minutes, with the page automatically refreshed every 10 minutes)

About weather observations | Map of weather stations | Latest weather observations for SA | Other Formats
Station Details ID: 018120 Name: WHYALLA AERO Lat: -33.05 Lon: 137.52 Height: 9.3 m
Data from the previous 72 hours. | See also: Recent months at Whyalla
Date/Time
CST
Temp
°C
App
Temp
°C
Dew
Point
Rel
Hum
%
Delta-T
°C
Wind Press
QNH
hPa
Press
MSL
hPa
Rain
since 9 am
mm
Dir
 
Spd
km/h
Gust
km/h
Spd
kts
Gust
kts
02/01:00pm 22.5 16.1 5.0 32 8.7 WNW 28 39 15 21 1013.8 1013.8 0.0
02/12:30pm 22.5 16.4 5.0 32 8.7 WNW 26 37 14 20 1014.5 1014.5 0.0
02/12:00pm 21.9 15.4 4.5 32 8.5 WNW 28 43 15 23 1015.0 1015.0 0.0
02/11:30am 21.6 15.1 4.7 33 8.3 WNW 28 44 15 24 1015.4 1015.4 0.0
02/11:00am 20.7 14.1 4.3 34 7.9 WNW 28 41 15 22 1015.9 1015.9 0.0
02/10:30am 20.0 13.5 4.9 37 7.3 WNW 28 37 15 20 1016.1 1016.1 0.0
02/10:00am 19.7 13.3 5.4 39 7.0 WNW 28 37 15 20 1016.2 1016.2 0.0
02/09:30am 19.4 14.6 5.5 40 6.8 NW 20 28 11 15 1016.4 1016.4 0.0
02/09:00am 17.8 13.7 6.3 47 5.7 NNW 17 20 9 11 1016.5 1016.5 0.0
02/08:30am 15.8 12.3 7.1 56 4.3 NNW 15 17 8 9 1016.4 1016.4 0.0
02/08:00am 12.8 9.9 6.4 65 3.0 NNW 11 15 6 8 1016.3 1016.3 0.0
02/07:30am 10.3 7.0 6.3 76 1.9 NNW 13 13 7 7 1016.1 1016.1 0.0
02/07:00am 9.6 5.9 6.3 80 1.5 NNW 15 17 8 9 1016.1 1016.1 0.0
02/06:30am 8.4 5.3 5.5 82 1.3 NNW 11 13 6 7 1016.1 1016.1 0.0
02/06:00am 9.6 7.0 6.1 79 1.6 NNW 9 11 5 6 1016.0 1016.0 0.0
02/05:30am 10.1 7.2 6.4 78 1.7 N 11 13 6 7 1015.8 1015.8 0.0
02/05:00am 10.4 7.1 6.4 76 1.9 NNW 13 15 7 8 1015.8 1015.8 0.0
02/04:30am 11.2 7.9 6.5 73 2.2 NW 13 15 7 8 1016.0 1016.0 0.0
02/04:00am 11.9 9.1 6.8 71 2.4 WNW 11 13 6 7 1015.9 1015.9 0.0
02/03:30am 12.6 10.2 7.1 69 2.6 WNW 9 11 5 6 1016.1 1016.1 0.0
02/03:00am 13.0 10.0 7.5 69 2.7 N 13 15 7 8 1016.2 1016.2 0.0
02/02:30am 13.0 10.2 7.0 67 2.9 N 11 13 6 7 1016.6 1016.6 0.0
02/02:00am 12.9 11.0 6.9 67 2.9 NW 6 9 3 5 1017.0 1017.0 0.0
02/01:30am 12.7 10.3 7.0 68 2.7 N 9 11 5 6 1017.3 1017.3 0.0
02/01:00am 12.4 9.2 6.9 69 2.6 NW 13 15 7 8 1017.8 1017.8 0.0
02/12:30am 11.5 9.3 6.2 70 2.5 NW 7 9 4 5 1017.7 1017.7 0.0
02/12:00am 11.6 9.0 6.1 69 2.6 NW 9 11 5 6 1018.2 1018.2 0.0
 
Date/Time
CST
Temp
°C
App
Temp
°C
Dew
Point
Rel
Hum
%
Delta-T
°C
Wind Press
QNH
hPa
Press
MSL
hPa
Rain
since 9 am
mm
Dir
 
Spd
km/h
Gust
km/h
Spd
kts
Gust
kts
01/11:30pm 11.0 8.3 5.7 70 2.4 WNW 9 11 5 6 1018.3 1018.3 0.0
01/11:00pm 10.0 7.8 5.2 72 2.2 WNW 6 9 3 5 1018.5 1018.5 0.0
01/10:30pm 9.5 7.2 5.7 77 1.7 WSW 7 9 4 5 1018.7 1018.7 0.0
01/10:00pm 8.9 5.9 4.3 73 2.0 WNW 9 11 5 6 1018.7 1018.7 0.0
01/09:30pm 9.2 6.3 4.6 73 2.0 WNW 9 11 5 6 1018.7 1018.7 0.0
01/09:00pm 10.0 7.6 5.2 72 2.2 NW 7 11 4 6 1018.7 1018.7 0.0
01/08:30pm 10.5 8.3 5.5 71 2.3 W 6 6 3 3 1018.7 1018.7 0.0
01/08:00pm 11.3 10.3 5.6 68 2.6 CALM 0 0 0 0 1018.7 1018.7 0.0
01/07:30pm 12.7 11.7 5.8 63 3.2 CALM 0 2 0 1 1018.7 1018.7 0.0
01/07:00pm 14.3 12.1 8.0 66 3.1 ESE 9 9 5 5 1018.4 1018.4 0.0
01/06:30pm 14.8 13.0 7.8 63 3.5 ESE 7 9 4 5 1018.3 1018.3 0.0
01/06:00pm 15.3 13.3 7.3 59 3.9 SE 7 11 4 6 1018.1 1018.1 0.0
01/05:30pm 16.4 14.1 7.3 55 4.5 ESE 9 15 5 8 1017.8 1017.8 0.0
01/05:00pm 17.2 13.7 7.3 52 5.0 ESE 15 20 8 11 1017.8 1017.8 0.0
01/04:30pm 17.6 14.4 6.8 49 5.4 ESE 13 20 7 11 1017.8 1017.8 0.0
01/04:00pm 17.7 13.6 6.3 47 5.6 SE 17 22 9 12 1017.7 1017.7 0.0
01/03:30pm 18.3 14.3 6.5 46 5.8 SE 17 24 9 13 1017.6 1017.6 0.0
01/03:00pm 18.4 14.1 6.9 47 5.7 SE 19 28 10 15 1017.6 1017.6 0.0
01/02:30pm 18.6 14.3 7.1 47 5.8 SE 19 26 10 14 1017.6 1017.6 0.0
01/02:00pm 18.3 14.3 6.8 47 5.7 SSE 17 24 9 13 1017.6 1017.6 0.0
01/01:30pm 18.8 14.5 7.9 49 5.6 SE 20 26 11 14 1017.7 1017.7 0.0
01/01:00pm 18.5 13.8 7.9 50 5.4 SE 22 30 12 16 1018.0 1018.0 0.0
01/12:30pm 18.6 13.8 7.4 48 5.7 SSE 22 32 12 17 1018.3 1018.3 0.0
01/12:00pm 18.7 13.8 5.2 41 6.5 SSW 20 32 11 17 1018.5 1018.5 0.0
01/11:30am 19.1 14.4 5.2 40 6.7 SSW 19 30 10 16 1018.6 1018.6 0.0
01/11:00am 18.8 14.3 6.3 44 6.2 SW 19 26 10 14 1018.7 1018.7 0.0
01/10:30am 18.0 11.6 5.2 43 6.2 SSW 28 43 15 23 1018.6 1018.6 0.0
01/10:00am 17.4 11.2 6.0 47 5.6 SSW 28 37 15 20 1018.4 1018.4 0.0
01/09:30am 16.8 10.8 6.9 52 4.9 SSW 28 33 15 18 1018.2 1018.2 0.0
01/09:00am 16.1 11.2 8.3 60 3.9 SW 24 32 13 17 1018.3 1018.3 0.0
01/08:30am 14.7 12.1 9.3 70 2.8 WSW 13 20 7 11 1018.3 1018.3 0.0
01/08:00am 13.2 11.4 9.6 79 1.8 NW 9 9 5 5 1018.3 1018.3 0.0
01/07:30am 10.9 8.2 8.8 87 1.0 WNW 13 13 7 7 1018.0 1018.0 0.0
01/07:00am 11.2 9.8 8.8 85 1.2 NW 6 9 3 5 1018.1 1018.1 0.0
01/06:30am 11.8 9.1 9.0 83 1.4 W 13 17 7 9 1017.9 1017.9 0.0
01/06:00am 11.5 8.4 8.9 84 1.3 NW 15 17 8 9 1017.7 1017.7 0.0
01/05:30am 12.2 10.3 8.9 80 1.6 NNW 9 11 5 6 1017.6 1017.6 0.0
01/05:00am 13.5 11.0 9.6 77 2.0 WNW 13 19 7 10 1017.2 1017.2 0.0
01/04:30am 13.7 10.2 10.1 79 1.9 WNW 19 24 10 13 1016.7 1016.7 0.0
01/04:00am 13.4 10.9 9.8 79 1.8 NW 13 17 7 9 1016.4 1016.4 0.0
01/03:30am 13.8 10.6 10.0 78 2.0 NW 17 20 9 11 1016.0 1016.0 0.0
01/03:00am 13.4 10.9 9.6 78 1.9 NW 13 17 7 9 1015.7 1015.7 0.0
01/02:30am 13.7 11.9 9.6 76 2.1 NW 9 15 5 8 1015.3 1015.3 0.0
01/02:00am 14.3 11.8 9.7 74 2.4 WNW 13 19 7 10 1015.0 1015.0 0.0
01/01:30am 14.9 12.2 10.5 75 2.3 W 15 19 8 10 1014.9 1014.9 0.0
01/01:00am 15.1 11.6 10.1 72 2.6 W 19 24 10 13 1014.6 1014.6 0.0
01/12:30am 15.7 12.0 10.2 70 2.9 W 20 28 11 15 1014.0 1014.0 0.0
01/12:00am 15.9 11.8 10.2 69 3.0 W 22 30 12 16 1013.7 1013.7 0.0
 
Date/Time
CST
Temp
°C
App
Temp
°C
Dew
Point
Rel
Hum
%
Delta-T
°C
Wind Press
QNH
hPa
Press
MSL
hPa
Rain
since 9 am
mm
Dir
 
Spd
km/h
Gust
km/h
Spd
kts
Gust
kts
30/11:30pm 16.3 11.8 10.2 67 3.2 W 24 33 13 18 1013.5 1013.5 0.0
30/11:00pm 16.8 11.1 9.7 63 3.7 W 30 43 16 23 1013.0 1013.0 0.0
30/10:50pm 17.0 10.8 9.4 61 4.0 W 32 50 17 27 1012.9 1012.9 0.0
30/10:30pm 17.3 11.1 9.2 59 4.2 W 32 44 17 24 1012.7 1012.7 0.0
30/10:06pm 17.8 11.4 8.6 55 4.7 W 32 54 17 29 1012.1 1012.1 0.0
30/10:00pm 17.9 11.3 8.5 54 4.8 W 33 46 18 25 1012.1 1012.1 0.0
30/09:30pm 18.2 11.7 8.2 52 5.1 W 32 43 17 23 1011.9 1011.9 0.0
30/09:00pm 18.5 10.7 8.2 51 5.3 W 39 59 21 32 1011.5 1011.5 0.0
30/08:49pm 19.0 11.6 8.4 50 5.5 W 37 61 20 33 1011.4 1011.4 0.0
30/08:30pm 19.4 13.7 9.9 54 5.1 W 30 43 16 23 1011.1 1011.1 0.0
30/08:00pm 20.4 12.6 9.6 50 5.8 WSW 41 61 22 33 1010.1 1010.1 0.0
30/07:42pm 23.1 14.8 6.0 33 8.7 W 39 65 21 35 1009.1 1009.1 0.0
30/07:33pm 24.9 18.1 7.1 32 9.3 NW 32 48 17 26 1008.5 1008.5 0.0
30/07:30pm 25.2 19.3 7.3 32 9.4 NW 28 39 15 21 1008.3 1008.3 0.0
30/07:00pm 25.6 20.1 7.7 32 9.5 NNW 26 41 14 22 1007.6 1007.6 0.0
30/06:30pm 25.9 19.9 7.0 30 10.0 NW 28 37 15 20 1007.4 1007.4 0.0
30/06:00pm 26.4 21.3 9.3 34 9.4 NW 26 43 14 23 1007.0 1007.0 0.0
30/05:30pm 26.8 21.0 10.9 37 9.0 NNW 32 41 17 22 1006.9 1006.9 0.0
30/05:00pm 27.1 20.7 10.8 36 9.2 NW 35 50 19 27 1006.9 1006.9 0.0
30/04:30pm 27.2 20.1 10.8 36 9.3 NNW 39 54 21 29 1006.8 1006.8 0.0
30/04:11pm 27.5 20.6 10.2 34 9.7 NNW 37 56 20 30 1006.8 1006.8 0.0
30/04:00pm 28.4 20.8 10.6 33 10.1 NNW 41 56 22 30 1006.8 1006.8 0.0
30/03:53pm 28.6 21.7 10.3 32 10.3 NNW 37 56 20 30 1006.8 1006.8 0.0
30/03:30pm 28.1 19.9 10.3 33 10.0 NNW 44 59 24 32 1006.8 1006.8 0.0
30/03:15pm 27.4 19.3 10.2 34 9.6 NNW 43 61 23 33 1007.3 1007.3 0.0
30/03:00pm 27.7 19.6 10.0 33 9.9 NNW 43 57 23 31 1007.2 1007.2 0.0
30/02:41pm 28.5 20.2 9.2 30 10.7 NNW 43 65 23 35 1007.4 1007.4 0.0
30/02:30pm 29.2 21.9 8.8 28 11.3 NNW 37 54 20 29 1007.6 1007.6 0.0
30/02:14pm 27.8 20.9 7.1 27 11.0 NNW 33 54 18 29 1007.7 1007.7 0.0
30/02:00pm 29.0 22.3 8.1 27 11.4 NNW 33 43 18 23 1007.9 1007.9 0.0
30/01:58pm 27.9 20.6 7.2 27 11.0 NNW 35 54 19 29 1007.9 1007.9 0.0
30/01:34pm 28.2 20.7 6.3 25 11.5 NNW 35 48 19 26 1008.4 1008.4 0.0
30/01:30pm 28.6 21.2 6.7 25 11.7 NNW 35 52 19 28 1008.5 1008.5 0.0
30/01:24pm 28.8 21.7 6.2 24 11.9 NNW 33 52 18 28 1008.7 1008.7 0.0
30/01:00pm 28.3 21.1 5.8 24 11.7 NNW 33 48 18 26 1009.2 1009.2 0.0
30/12:30pm 27.8 21.9 6.0 25 11.4 NNW 26 37 14 20 1009.8 1009.8 0.0
30/12:00pm 26.8 20.7 6.8 28 10.5 NNW 28 43 15 23 1010.8 1010.8 0.0
30/11:30am 26.7 20.9 4.5 24 11.2 NNW 24 37 13 20 1011.5 1011.5 0.0
30/11:00am 25.8 19.4 6.9 30 9.9 NNW 30 39 16 21 1012.2 1012.2 0.0
30/10:30am 25.0 20.4 9.7 38 8.4 N 24 32 13 17 1012.7 1012.7 0.0
30/10:00am 24.7 21.4 10.9 42 7.7 NNW 19 26 10 14 1013.0 1013.0 0.0
30/09:30am 23.0 20.0 12.0 50 6.2 NNW 19 24 10 13 1013.2 1013.2 0.0
30/09:00am 20.5 18.3 12.2 59 4.6 NNW 15 19 8 10 1013.4 1013.4 0.0
30/08:30am 17.6 16.0 11.6 68 3.3 NNW 11 15 6 8 1013.6 1013.6 0.0
30/08:00am 14.4 12.1 10.4 77 2.1 NNW 13 17 7 9 1013.7 1013.7 0.0
30/07:30am 11.8 10.1 9.7 87 1.1 NW 9 11 5 6 1013.6 1013.6 0.0
30/07:00am 10.4 8.4 8.7 89 0.8 NW 9 13 5 7 1013.4 1013.4 0.0
30/06:30am 11.3 9.1 9.4 88 1.0 NW 11 13 6 7 1013.4 1013.4 0.0
30/06:00am 11.6 9.9 9.7 88 1.0 NNW 9 13 5 7 1013.4 1013.4 0.0
30/05:30am 11.2 9.4 9.5 89 0.9 NNW 9 11 5 6 1013.3 1013.3 0.0
30/05:00am 11.9 10.2 9.8 87 1.1 NW 9 11 5 6 1013.1 1013.1 0.0
30/04:30am 12.2 10.9 10.1 87 1.1 WNW 7 9 4 5 1013.1 1013.1 0.0
30/04:00am 12.7 11.5 10.4 86 1.2 NW 7 11 4 6 1013.0 1013.0 0.0
30/03:30am 13.1 11.2 10.6 85 1.3 NNW 11 13 6 7 1013.1 1013.1 0.0
30/03:00am 12.8 11.0 10.7 87 1.1 N 11 17 6 9 1013.2 1013.2 0.0
30/02:30am 13.1 11.6 10.6 85 1.3 N 9 11 5 6 1013.1 1013.1 0.0
30/02:00am 12.7 10.7 10.1 84 1.3 NNW 11 13 6 7 1013.3 1013.3 0.0
30/01:30am 13.7 12.2 10.7 82 1.6 NW 9 11 5 6 1013.3 1013.3 0.0
30/01:00am 13.3 11.0 10.3 82 1.6 NW 13 13 7 7 1013.5 1013.5 0.0
30/12:30am 13.8 12.0 10.8 82 1.6 NNW 11 13 6 7 1013.6 1013.6 0.0
30/12:00am 15.3 14.5 11.7 79 1.9 NW 7 9 4 5 1013.8 1013.8 0.0
 
Date/Time
CST
Temp
°C
App
Temp
°C
Dew
Point
Rel
Hum
%
Delta-T
°C
Wind Press
QNH
hPa
Press
MSL
hPa
Rain
since 9 am
mm
Dir
 
Spd
km/h
Gust
km/h
Spd
kts
Gust
kts
29/11:30pm 15.2 13.6 11.6 79 1.9 NNW 11 13 6 7 1013.7 1013.7 0.0
29/11:00pm 15.2 14.0 11.6 79 1.9 WNW 9 13 5 7 1013.8 1013.8 0.0
29/10:30pm 15.8 14.0 12.2 79 2.0 W 13 15 7 8 1013.8 1013.8 0.0
29/10:00pm 16.8 15.9 12.7 77 2.3 WNW 9 9 5 5 1013.6 1013.6 0.0
29/09:30pm 17.5 16.4 13.2 76 2.4 W 11 15 6 8 1013.5 1013.5 0.0
29/09:00pm 18.4 17.9 13.9 75 2.6 W 9 13 5 7 1013.3 1013.3 0.0
29/08:30pm 19.0 19.2 14.7 76 2.5 W 7 13 4 7 1013.0 1013.0 0.0
29/08:00pm 19.8 19.5 15.4 76 2.6 W 11 15 6 8 1012.7 1012.7 0.0
29/07:30pm 19.7 19.4 14.3 71 3.1 W 9 13 5 7 1012.2 1012.2 0.0
29/07:00pm 21.2 20.5 13.1 60 4.6 WSW 9 11 5 6 1011.7 1011.7 0.0
29/06:30pm 22.6 21.7 12.5 53 5.8 NW 9 13 5 7 1011.3 1011.3 0.0
29/06:00pm 23.9 23.4 12.5 49 6.5 WNW 7 9 4 5 1011.0 1011.0 0.0
29/05:30pm 25.0 24.1 12.6 46 7.2 NNW 9 11 5 6 1010.8 1010.8 0.0
29/05:00pm 25.4 23.7 12.6 45 7.4 NW 13 17 7 9 1010.8 1010.8 0.0
29/04:30pm 26.5 25.5 12.2 41 8.3 NNW 9 13 5 7 1010.5 1010.5 0.0
29/04:00pm 26.7 25.4 12.4 41 8.3 NW 11 17 6 9 1010.7 1010.7 0.0
29/03:30pm 25.9 24.7 12.7 44 7.7 NNW 11 17 6 9 1010.7 1010.7 0.0
29/03:00pm 26.0 23.0 12.1 42 8.0 NW 19 24 10 13 1010.6 1010.6 0.0
29/02:30pm 26.2 24.3 13.0 44 7.7 NW 15 24 8 13 1010.5 1010.5 0.0
29/02:00pm 26.5 23.6 12.9 43 7.9 NW 20 28 11 15 1010.7 1010.7 0.0
29/01:30pm 25.7 23.7 13.9 48 7.0 NW 17 28 9 15 1010.8 1010.8 0.0

Other Formats:

Comma delimited format used in spreadsheet applications
http://www.bom.gov.au/fwo/IDS60801/IDS60801.95664.axf

JavaScript Object Notation format (JSON) in row-major order
http://www.bom.gov.au/fwo/IDS60801/IDS60801.95664.json